Friday, December 19, 2014
14:22 UTC
  |  Log In   |  Register Free
Airport Search:

Enid Woodring Regional Airport
(KWDG)

FAA data valid effective November 13, 2014 - January 08, 2015 (unless otherwise noted).

 
 
 
 
 
 
 
 
 
 
 
 
 
 

Current Aviation Weather for Enid Woodring Regional Airport (KWDG)

The most recent METAR observation for KWDG was updated at: 2122
METAR Summary (Translated METAR)
KWDG
182050Z 35010KT 3SM BR OVC006 05/04 A3014
KEND
182055Z 36007KT 10SM BKN007 OVC012 04/03 A3013 RMK AO2A SLP214 56010
(6.6 nm SW from KWDG)
KBKN
182055Z AUTO 34009KT 10SM BKN008 OVC012 03/02 A3015 RMK AO2
(30.6 nm NE from KWDG)
TAF Summary (Translated TAF)
KEND
(6.6 nm SW from KWDG)
1911/2017 02009KT 9999 BKN006 QNH3018INS BECMG 1916/1917 05006KT 9999 OVC010 QNH3018INS BECMG 1919/1920 18006KT 9999 BKN020 QNH3016INS BECMG 1923/1924 18006KT 9999 BKN030 QNH3015INS TX06/1920Z TN01/1911Z
  Airport Weather Conditions for KWDG

 Current Weather at WDG
36° F
Fog/Mist
Northeast winds at 8.1 mph
WDG NOAA Radar

Pressure: 30.22 in
Humidity: 93%
Wind: Northeast at 8.1 MPH (7 KT)
Dew Point: 33.8°F
Visibility: 4.00 mi


Airport Weather Forecast for KWDG

Translated METAR and TAF for KWDG
Translated METAR for KWDG (1423 UTC 19 December 2014)
found at http://aviationweather.gov/adds/metars/
 
METAR text: KWDG 191420Z 04004KT 2SM BR OVC004 02/01 A3024
Conditions at: KWDG (ENID/WOODRING , OK, US) observed 1420 UTC 19 December 2014
Temperature: 2.0°C (36°F)
Dewpoint: 1.0°C (34°F) [RH = 93%]
Pressure (altimeter): 30.24 inches Hg (1024.1 mb)
Winds: from the NE (40 degrees) at 5 MPH (4 knots; 2.1 m/s)
Visibility: 2.00 miles (3.22 km)
Ceiling: 400 feet AGL
Clouds: overcast cloud deck at 400 feet AGL
Weather: BR  (mist)
Translated TAF for KWDG

There is no translated TAF available for this airport

Find All Airport Services Find A Hotel Find A Rental Car Find A Golf Course Find A Restaurant $100 Hamburger



FBO's on the Field
FBO Company Facility Photos Services Transportation Aviation Fuel Prices: Prices include tax
Catering Weather Repair Courtesy Rental Type 100LL JetA JetA+ MOGAS 8087
 
Enid Woodring Regional Airport

This FBO has not yet been rated
FS:Phillips 66
Last Updated: Dec-12
Login to update fuel prices
SS:
Contact Enid Woodring Regional AirportMore FBO Information
 
Add another FBO Facility Photos Catering Weather Repair Courtesy Rental Type 100LL JetA JetA+ MOGAS 8087
Services Transportation Aviation Fuel Prices: Prices include tax


model-print
model-print
model-print
model-print